createdAt,value
2022-09-25T00:01:37.255Z,7.73
2022-09-25T00:04:06.406Z,7.61
2022-09-25T00:06:35.091Z,7.59
2022-09-25T00:09:06.769Z,7.55
2022-09-25T00:11:39.220Z,7.58
2022-09-25T00:14:08.034Z,7.57
2022-09-25T00:16:36.756Z,7.56
2022-09-25T00:19:23.151Z,7.52
2022-09-25T00:21:53.089Z,7.38
2022-09-25T00:24:22.538Z,7.51
2022-09-25T00:26:52.821Z,7.45
2022-09-25T00:29:21.958Z,7.35
2022-09-25T00:31:50.676Z,7.32
2022-09-25T00:34:19.347Z,7.35
2022-09-25T00:36:47.964Z,7.32
2022-09-25T00:39:16.765Z,7.16
2022-09-25T00:41:45.593Z,7.24
2022-09-25T00:44:56.816Z,7.21
2022-09-25T00:47:48.613Z,7.17
2022-09-25T00:50:28.048Z,7.10
2022-09-25T00:53:04.175Z,7.14
2022-09-25T00:55:35.099Z,7.12
2022-09-25T00:58:05.154Z,7.12
2022-09-25T01:00:36.051Z,6.99
2022-09-25T01:03:06.396Z,7.10
2022-09-25T01:05:37.903Z,7.06
2022-09-25T01:08:10.307Z,7.11
2022-09-25T01:10:39.143Z,7.07
2022-09-25T01:13:08.524Z,7.16
2022-09-25T01:15:48.811Z,7.14
2022-09-25T01:18:32.683Z,7.15
2022-09-25T01:21:20.468Z,7.08
2022-09-25T01:24:05.979Z,6.91
2022-09-25T01:27:28.647Z,6.95
2022-09-25T01:30:07.324Z,6.84
2022-09-25T01:32:44.592Z,6.68
2022-09-25T01:35:19.766Z,6.68
2022-09-25T01:37:56.627Z,6.54
2022-09-25T01:40:33.658Z,6.49
2022-09-25T01:43:12.297Z,6.42
2022-09-25T01:45:47.420Z,6.39
2022-09-25T01:48:20.087Z,6.44
2022-09-25T01:50:52.790Z,6.38
2022-09-25T01:53:27.222Z,6.32
2022-09-25T01:56:00.078Z,6.17
2022-09-25T01:58:32.490Z,6.06
2022-09-25T02:01:07.956Z,6.05
2022-09-25T02:03:44.272Z,5.93
2022-09-25T02:06:17.600Z,5.92
2022-09-25T02:08:49.791Z,5.93
2022-09-25T02:11:19.550Z,5.98
2022-09-25T02:13:51.497Z,6.06
2022-09-25T02:16:24.113Z,6.15
2022-09-25T02:19:10.272Z,6.23
2022-09-25T02:21:49.291Z,6.40
2022-09-25T02:24:23.141Z,6.49
2022-09-25T02:26:52.570Z,6.56
2022-09-25T02:29:21.812Z,6.71
2022-09-25T02:31:56.756Z,6.73
2022-09-25T02:34:25.757Z,6.81
2022-09-25T02:36:54.509Z,6.78
2022-09-25T02:39:25.877Z,6.75
2022-09-25T02:42:20.611Z,6.75
2022-09-25T02:45:08.093Z,6.65
2022-09-25T02:47:49.196Z,6.73
2022-09-25T02:50:23.448Z,6.73
2022-09-25T02:53:00.516Z,6.64
2022-09-25T02:55:41.563Z,6.68
2022-09-25T02:58:17.046Z,6.70
2022-09-25T03:00:49.141Z,6.73
2022-09-25T03:03:21.585Z,6.72
2022-09-25T03:05:51.837Z,6.73
2022-09-25T03:08:42.526Z,6.78
2022-09-25T03:11:13.673Z,6.74
2022-09-25T03:13:43.539Z,6.72
2022-09-25T03:16:17.743Z,6.73
2022-09-25T03:18:48.475Z,6.49
2022-09-25T03:21:17.449Z,6.51
2022-09-25T03:23:46.283Z,6.50
2022-09-25T03:26:15.310Z,6.43
2022-09-25T03:28:44.159Z,6.35
2022-09-25T03:31:13.592Z,6.31
2022-09-25T03:33:44.360Z,6.36
2022-09-25T03:36:16.551Z,6.32
2022-09-25T03:38:46.403Z,6.28
2022-09-25T03:41:18.039Z,6.27
2022-09-25T03:43:48.874Z,6.19
2022-09-25T03:46:17.804Z,6.07
2022-09-25T03:48:46.751Z,5.91
2022-09-25T03:51:17.069Z,5.74
2022-09-25T03:53:45.995Z,5.53
2022-09-25T03:56:17.155Z,5.18
2022-09-25T03:58:45.950Z,5.04
2022-09-25T04:01:14.910Z,4.97
2022-09-25T04:03:47.515Z,5.04
2022-09-25T04:06:19.484Z,5.01
2022-09-25T04:08:50.181Z,5.06
2022-09-25T04:11:21.141Z,5.08
2022-09-25T04:13:50.071Z,5.21
2022-09-25T04:16:21.355Z,5.35
2022-09-25T04:18:51.496Z,5.39
2022-09-25T04:21:21.552Z,5.53
2022-09-25T04:24:04.108Z,5.61
2022-09-25T04:26:33.117Z,5.68
2022-09-25T04:29:02.347Z,5.68
2022-09-25T04:31:32.013Z,5.70
2022-09-25T04:34:00.114Z,5.89
2022-09-25T04:36:30.354Z,6.00
2022-09-25T04:38:59.074Z,6.08
2022-09-25T04:41:27.969Z,6.17
2022-09-25T04:43:56.674Z,6.30
2022-09-25T04:46:25.418Z,6.38
2022-09-25T04:48:54.337Z,6.49
2022-09-25T04:51:23.371Z,6.51
2022-09-25T04:53:54.133Z,6.53
2022-09-25T04:56:23.012Z,6.66
2022-09-25T04:58:51.975Z,6.70
2022-09-25T05:01:22.131Z,6.73
2022-09-25T05:03:53.722Z,7.00
2022-09-25T05:06:23.250Z,7.10
2022-09-25T05:08:53.508Z,7.32
2022-09-25T05:11:22.393Z,7.57
2022-09-25T05:13:52.081Z,7.90
2022-09-25T05:16:21.067Z,8.22
2022-09-25T05:18:50.086Z,8.41
2022-09-25T05:21:18.774Z,8.60
2022-09-25T05:23:47.473Z,8.80
2022-09-25T05:26:17.688Z,8.77
2022-09-25T05:28:50.299Z,8.83
2022-09-25T05:31:19.549Z,8.78
2022-09-25T05:33:48.776Z,8.83
2022-09-25T05:36:18.999Z,8.81
2022-09-25T05:38:48.282Z,8.15
2022-09-25T05:41:18.796Z,8.35
2022-09-25T05:43:48.556Z,8.47
2022-09-25T05:46:17.674Z,8.50
2022-09-25T05:48:46.458Z,8.61
2022-09-25T05:51:15.288Z,8.98
2022-09-25T05:53:43.943Z,9.41
2022-09-25T05:56:12.622Z,9.52
2022-09-25T05:58:42.790Z,9.77
2022-09-25T06:01:11.431Z,10.13
2022-09-25T06:03:40.310Z,10.71
2022-09-25T06:06:09.129Z,10.90
2022-09-25T06:08:37.890Z,10.96
2022-09-25T06:11:07.987Z,10.95
2022-09-25T06:13:37.159Z,10.89
2022-09-25T06:16:19.657Z,10.59
2022-09-25T06:18:48.560Z,10.70
2022-09-25T06:21:17.337Z,10.59
2022-09-25T06:23:46.933Z,10.56
2022-09-25T06:26:15.744Z,10.71
2022-09-25T06:28:44.475Z,10.72
2022-09-25T06:31:14.648Z,10.97
2022-09-25T06:33:44.013Z,11.47
2022-09-25T06:36:12.922Z,11.73
2022-09-25T06:38:41.657Z,11.95
2022-09-25T06:41:10.535Z,12.21
2022-09-25T06:43:39.462Z,12.38
2022-09-25T06:46:08.410Z,12.45
2022-09-25T06:48:38.679Z,12.12
2022-09-25T06:51:08.945Z,12.09
2022-09-25T06:53:38.007Z,11.74
2022-09-25T06:56:06.914Z,11.66
2022-09-25T06:58:36.295Z,11.51
2022-09-25T07:01:09.893Z,11.65
2022-09-25T07:03:45.610Z,11.84
2022-09-25T07:06:16.561Z,11.91
2022-09-25T07:08:48.406Z,12.30
2022-09-25T07:11:19.951Z,13.04
2022-09-25T07:13:55.439Z,13.58
2022-09-25T07:16:25.949Z,13.81
2022-09-25T07:18:59.853Z,13.81
2022-09-25T07:21:30.895Z,13.87
2022-09-25T07:24:00.027Z,13.69
2022-09-25T07:26:30.896Z,14.00
2022-09-25T07:29:02.006Z,14.58
2022-09-25T07:31:33.154Z,15.26
2022-09-25T07:34:09.581Z,15.93
2022-09-25T07:36:39.561Z,16.05
2022-09-25T07:39:08.738Z,15.86
2022-09-25T07:41:38.117Z,16.03
2022-09-25T07:44:27.324Z,16.63
2022-09-25T07:46:56.012Z,16.76
2022-09-25T07:49:26.138Z,16.72
2022-09-25T07:51:54.897Z,16.89
2022-09-25T07:54:23.924Z,16.85
2022-09-25T07:56:52.954Z,17.03
2022-09-25T07:59:21.987Z,17.17
2022-09-25T08:01:53.908Z,17.60
2022-09-25T08:04:23.270Z,17.98
2022-09-25T08:06:53.603Z,18.22
2022-09-25T08:09:22.560Z,18.61
2022-09-25T08:11:51.986Z,18.46
2022-09-25T08:14:26.502Z,19.07
2022-09-25T08:16:56.229Z,19.46
2022-09-25T08:19:25.140Z,19.69
2022-09-25T08:21:55.631Z,19.74
2022-09-25T08:24:24.613Z,20.17
2022-09-25T08:26:53.631Z,20.23
2022-09-25T08:29:23.274Z,20.38
2022-09-25T08:31:52.190Z,20.67
2022-09-25T08:34:40.135Z,21.06
2022-09-25T08:37:11.412Z,21.47
2022-09-25T08:39:40.350Z,21.82
2022-09-25T08:42:19.793Z,22.06
2022-09-25T08:45:22.149Z,21.62
2022-09-25T08:48:26.392Z,22.21
2022-09-25T08:50:55.267Z,22.38
2022-09-25T08:53:27.625Z,22.52
2022-09-25T08:56:14.353Z,22.49
2022-09-25T08:58:46.639Z,22.46
2022-09-25T09:01:18.688Z,22.55
2022-09-25T09:03:53.825Z,22.68
2022-09-25T09:06:25.953Z,22.90
2022-09-25T09:09:01.629Z,23.04
2022-09-25T09:11:36.453Z,23.45
2022-09-25T09:14:07.902Z,23.64
2022-09-25T09:16:43.815Z,24.01
2022-09-25T09:19:14.715Z,24.26
2022-09-25T09:21:48.853Z,23.52
2022-09-25T09:24:25.579Z,23.41
2022-09-25T09:27:18.101Z,22.87
2022-09-25T09:29:59.313Z,22.77
2022-09-25T09:32:48.705Z,22.79
2022-09-25T09:35:33.601Z,23.02
2022-09-25T09:38:15.175Z,23.31
2022-09-25T09:41:07.381Z,23.69
2022-09-25T09:43:48.109Z,24.04
2022-09-25T09:46:23.491Z,23.99
2022-09-25T09:49:04.857Z,24.30
2022-09-25T09:51:38.613Z,24.23
2022-09-25T09:54:14.878Z,23.89
2022-09-25T09:56:50.082Z,23.79
2022-09-25T09:59:22.897Z,23.76
2022-09-25T10:02:01.162Z,23.94
2022-09-25T10:04:35.663Z,24.38
2022-09-25T10:07:08.021Z,24.30
2022-09-25T10:09:37.450Z,23.94
2022-09-25T10:12:14.665Z,24.55
2022-09-25T10:14:47.382Z,24.87
2022-09-25T10:17:17.182Z,25.04
2022-09-25T10:19:50.521Z,25.62
2022-09-25T10:22:22.564Z,25.49
2022-09-25T10:24:54.139Z,25.49
2022-09-25T10:27:29.505Z,26.00
2022-09-25T10:30:21.975Z,25.90
2022-09-25T10:33:02.562Z,25.85
2022-09-25T10:35:41.759Z,26.45
2022-09-25T10:38:26.533Z,26.38
2022-09-25T10:41:03.215Z,26.24
2022-09-25T10:43:33.787Z,26.41
2022-09-25T10:46:15.327Z,26.18
2022-09-25T10:49:01.837Z,26.30
2022-09-25T10:51:32.659Z,26.50
2022-09-25T10:54:13.670Z,26.79
2022-09-25T10:56:44.286Z,27.06
2022-09-25T10:59:20.448Z,27.38
2022-09-25T11:01:51.704Z,27.30
2022-09-25T11:04:24.875Z,27.45
2022-09-25T11:06:57.502Z,27.77
2022-09-25T11:09:28.572Z,27.14
2022-09-25T11:12:09.468Z,26.60
2022-09-25T11:14:55.481Z,26.08
2022-09-25T11:17:33.528Z,26.32
2022-09-25T11:20:21.339Z,26.23
2022-09-25T11:22:55.188Z,26.22
2022-09-25T11:25:28.281Z,26.29
2022-09-25T11:28:04.398Z,26.16
2022-09-25T11:30:44.546Z,26.38
2022-09-25T11:33:23.307Z,26.39
2022-09-25T11:35:58.352Z,26.65
2022-09-25T11:38:55.766Z,26.74
2022-09-25T11:41:32.706Z,26.77
2022-09-25T11:44:22.775Z,27.02
2022-09-25T11:47:02.270Z,27.02
2022-09-25T11:49:34.631Z,27.22
2022-09-25T11:52:40.394Z,27.15
2022-09-25T11:55:45.994Z,27.68
2022-09-25T11:58:33.536Z,27.91
2022-09-25T12:01:15.284Z,27.38
2022-09-25T12:04:12.864Z,26.92
2022-09-25T12:07:12.662Z,26.65
2022-09-25T12:09:55.451Z,27.03
2022-09-25T12:12:32.487Z,27.02
2022-09-25T12:15:15.009Z,26.97
2022-09-25T12:17:52.386Z,27.11
2022-09-25T12:20:32.434Z,27.50
2022-09-25T12:23:16.174Z,27.60
2022-09-25T12:26:06.721Z,27.31
2022-09-25T12:28:46.994Z,27.45
2022-09-25T12:31:25.155Z,27.29
2022-09-25T12:34:01.456Z,27.30
2022-09-25T12:36:37.883Z,27.43
2022-09-25T12:39:26.700Z,27.42
2022-09-25T12:42:07.551Z,27.23
2022-09-25T12:44:47.445Z,26.96
2022-09-25T12:47:25.104Z,26.59
2022-09-25T12:49:59.948Z,26.45
2022-09-25T12:52:36.221Z,26.15
2022-09-25T12:55:13.884Z,25.98
2022-09-25T12:57:48.439Z,25.89
2022-09-25T13:00:21.414Z,25.70
2022-09-25T13:02:57.384Z,25.50
2022-09-25T13:05:31.702Z,25.35
2022-09-25T13:08:11.326Z,25.27
2022-09-25T13:10:43.960Z,25.01
2022-09-25T13:13:19.506Z,24.95
2022-09-25T13:15:52.438Z,24.79
2022-09-25T13:18:23.546Z,24.74
2022-09-25T13:20:54.205Z,24.63
2022-09-25T13:23:32.654Z,24.61
2022-09-25T13:26:10.697Z,24.40
2022-09-25T13:28:55.329Z,24.29
2022-09-25T13:31:27.531Z,24.15
2022-09-25T13:34:04.035Z,24.16
2022-09-25T13:36:37.458Z,24.13
2022-09-25T13:39:36.001Z,24.14
2022-09-25T13:42:07.839Z,24.00
2022-09-25T13:45:06.463Z,24.00
2022-09-25T13:47:56.853Z,24.08
2022-09-25T13:50:37.818Z,24.12
2022-09-25T13:53:32.217Z,23.98
2022-09-25T13:56:23.313Z,23.94
2022-09-25T13:59:23.773Z,23.73
2022-09-25T14:01:55.342Z,23.86
2022-09-25T14:04:33.454Z,23.69
2022-09-25T14:07:20.622Z,23.44
2022-09-25T14:09:55.101Z,23.37
2022-09-25T14:12:30.477Z,23.09
2022-09-25T14:15:06.173Z,23.03
2022-09-25T14:17:38.283Z,22.96
2022-09-25T14:20:20.334Z,22.98
2022-09-25T14:22:56.203Z,22.80
2022-09-25T14:25:33.252Z,22.63
2022-09-25T14:28:05.375Z,22.77
2022-09-25T14:30:35.015Z,22.49
2022-09-25T14:33:22.833Z,22.40
2022-09-25T14:36:01.797Z,22.50
2022-09-25T14:38:51.238Z,22.50
2022-09-25T14:41:49.589Z,22.44
2022-09-25T14:44:40.465Z,22.35
2022-09-25T14:47:11.859Z,22.24
2022-09-25T14:49:43.787Z,22.11
2022-09-25T14:52:15.789Z,22.06
2022-09-25T14:54:47.874Z,22.03
2022-09-25T14:57:23.288Z,21.88
2022-09-25T14:59:59.191Z,21.84
2022-09-25T15:02:34.524Z,21.82
2022-09-25T15:05:19.260Z,21.77
2022-09-25T15:07:48.892Z,21.73
2022-09-25T15:10:29.947Z,21.65
2022-09-25T15:13:09.519Z,21.65
2022-09-25T15:15:41.646Z,21.54
2022-09-25T15:18:14.300Z,21.51
2022-09-25T15:20:49.611Z,21.49
2022-09-25T15:23:22.628Z,21.35
2022-09-25T15:25:52.892Z,21.36
2022-09-25T15:28:24.797Z,21.28
2022-09-25T15:31:00.428Z,21.22
2022-09-25T15:33:31.334Z,21.12
2022-09-25T15:36:01.971Z,21.05
2022-09-25T15:38:32.502Z,20.96
2022-09-25T15:41:01.606Z,20.90
2022-09-25T15:43:31.499Z,20.80
2022-09-25T15:46:37.779Z,20.64
2022-09-25T15:49:07.633Z,20.53
2022-09-25T15:51:38.422Z,20.42
2022-09-25T15:54:30.987Z,20.30
2022-09-25T15:57:01.947Z,20.19
2022-09-25T15:59:34.785Z,20.08
2022-09-25T16:02:36.707Z,20.02
2022-09-25T16:05:10.265Z,19.91
2022-09-25T16:07:41.081Z,19.84
2022-09-25T16:10:32.255Z,19.66
2022-09-25T16:13:01.715Z,19.53
2022-09-25T16:15:46.230Z,19.58
2022-09-25T16:18:40.837Z,19.48
2022-09-25T16:21:24.385Z,19.44
2022-09-25T16:24:02.386Z,19.31
2022-09-25T16:26:38.375Z,19.25
2022-09-25T16:29:22.780Z,19.26
2022-09-25T16:31:53.798Z,19.13
2022-09-25T16:34:28.156Z,19.03
2022-09-25T16:37:00.924Z,18.87
2022-09-25T16:39:33.054Z,18.73
2022-09-25T16:42:26.667Z,18.57
2022-09-25T16:45:05.475Z,18.43
2022-09-25T16:47:35.255Z,18.27
2022-09-25T16:50:06.136Z,18.18
2022-09-25T16:52:36.053Z,18.10
2022-09-25T16:55:09.362Z,17.97
2022-09-25T16:57:43.810Z,17.85
2022-09-25T17:00:18.370Z,17.82
2022-09-25T17:03:14.056Z,17.74
2022-09-25T17:05:45.308Z,17.57
2022-09-25T17:08:18.895Z,17.47
2022-09-25T17:10:53.986Z,17.30
2022-09-25T17:13:28.571Z,17.18
2022-09-25T17:15:57.600Z,17.05
2022-09-25T17:18:51.426Z,16.98
2022-09-25T17:21:21.525Z,16.84
2022-09-25T17:23:50.685Z,16.78
2022-09-25T17:26:45.032Z,16.73
2022-09-25T17:29:14.451Z,16.66
2022-09-25T17:31:43.373Z,16.65
2022-09-25T17:34:37.572Z,16.55
2022-09-25T17:37:07.906Z,16.46
2022-09-25T17:39:36.612Z,16.36
2022-09-25T17:42:05.804Z,16.33
2022-09-25T17:44:34.560Z,16.24
2022-09-25T17:47:03.145Z,16.16
2022-09-25T17:49:32.550Z,15.97
2022-09-25T17:52:01.253Z,15.93
2022-09-25T17:54:31.645Z,15.65
2022-09-25T17:57:00.359Z,15.66
2022-09-25T17:59:28.976Z,15.38
2022-09-25T18:01:59.787Z,15.39
2022-09-25T18:04:28.905Z,14.85
2022-09-25T18:06:57.742Z,14.97
2022-09-25T18:09:26.334Z,15.05
2022-09-25T18:11:56.318Z,14.90
2022-09-25T18:14:26.298Z,14.89
2022-09-25T18:16:55.455Z,14.85
2022-09-25T18:19:41.489Z,14.70
2022-09-25T18:22:19.627Z,14.65
2022-09-25T18:24:52.916Z,14.43
2022-09-25T18:27:23.465Z,14.41
2022-09-25T18:29:52.348Z,14.26
2022-09-25T18:32:21.211Z,14.25
2022-09-25T18:34:49.917Z,13.97
2022-09-25T18:37:18.911Z,14.10
2022-09-25T18:39:48.235Z,14.09
2022-09-25T18:42:17.054Z,13.72
2022-09-25T18:44:47.558Z,13.86
2022-09-25T18:47:16.407Z,13.87
2022-09-25T18:49:45.568Z,13.90
2022-09-25T18:52:14.473Z,13.96
2022-09-25T18:54:43.306Z,13.96
2022-09-25T18:57:12.816Z,13.99
2022-09-25T18:59:41.876Z,13.93
2022-09-25T19:02:21.035Z,13.97
2022-09-25T19:04:51.433Z,13.89
2022-09-25T19:07:21.051Z,13.96
2022-09-25T19:09:50.052Z,13.94
2022-09-25T19:12:19.470Z,13.93
2022-09-25T19:14:49.087Z,13.95
2022-09-25T19:17:20.619Z,13.90
2022-09-25T19:19:49.247Z,13.82
2022-09-25T19:22:21.154Z,13.73
2022-09-25T19:24:51.389Z,13.83
2022-09-25T19:27:20.854Z,13.66
2022-09-25T19:29:49.632Z,13.54
2022-09-25T19:32:20.394Z,13.53
2022-09-25T19:34:50.508Z,13.54
2022-09-25T19:37:19.959Z,13.46
2022-09-25T19:40:06.135Z,13.45
2022-09-25T19:42:37.445Z,13.31
2022-09-25T19:45:07.245Z,13.30
2022-09-25T19:47:37.657Z,13.12
2022-09-25T19:50:08.994Z,13.27
2022-09-25T19:52:37.809Z,12.97
2022-09-25T19:55:07.379Z,13.00
2022-09-25T19:57:36.923Z,12.91
2022-09-25T20:00:06.928Z,12.87
2022-09-25T20:02:39.140Z,12.81
2022-09-25T20:05:10.616Z,12.76
2022-09-25T20:07:39.371Z,12.65
2022-09-25T20:10:08.317Z,12.64
2022-09-25T20:12:37.052Z,12.57
2022-09-25T20:15:06.305Z,12.54
2022-09-25T20:17:35.067Z,12.60
2022-09-25T20:20:05.635Z,12.63
2022-09-25T20:22:34.591Z,12.53
2022-09-25T20:25:03.339Z,12.52
2022-09-25T20:27:32.595Z,12.45
2022-09-25T20:30:01.307Z,12.48
2022-09-25T20:32:32.150Z,12.45
2022-09-25T20:35:00.955Z,12.40
2022-09-25T20:37:31.256Z,12.39
2022-09-25T20:40:00.202Z,12.27
2022-09-25T20:42:28.934Z,12.31
2022-09-25T20:44:57.639Z,12.25
2022-09-25T20:47:29.507Z,12.30
2022-09-25T20:49:58.448Z,12.22
2022-09-25T20:52:27.196Z,12.20
2022-09-25T20:54:57.270Z,12.11
2022-09-25T20:57:26.014Z,12.14
2022-09-25T20:59:54.775Z,12.08
2022-09-25T21:02:24.875Z,11.98
2022-09-25T21:04:53.638Z,11.94
2022-09-25T21:07:22.529Z,11.89
2022-09-25T21:09:51.207Z,11.75
2022-09-25T21:12:21.815Z,11.83
2022-09-25T21:14:51.118Z,11.81
2022-09-25T21:17:19.964Z,11.73
2022-09-25T21:19:48.711Z,11.68
2022-09-25T21:22:17.325Z,11.60
2022-09-25T21:24:45.987Z,11.56
2022-09-25T21:27:15.017Z,11.49
2022-09-25T21:29:45.124Z,11.43
2022-09-25T21:32:13.948Z,11.34
2022-09-25T21:34:42.769Z,11.34
2022-09-25T21:37:11.499Z,11.38
2022-09-25T21:39:40.864Z,11.43
2022-09-25T21:42:09.646Z,11.47
2022-09-25T21:44:39.139Z,11.46
2022-09-25T21:47:09.423Z,11.50
2022-09-25T21:49:38.648Z,11.44
2022-09-25T21:52:07.466Z,11.49
2022-09-25T21:54:36.343Z,11.41
2022-09-25T21:57:05.473Z,11.38
2022-09-25T21:59:34.243Z,11.36
2022-09-25T22:02:03.003Z,11.34
2022-09-25T22:04:33.175Z,11.31
2022-09-25T22:07:02.145Z,11.30
2022-09-25T22:09:31.200Z,11.36
2022-09-25T22:11:59.874Z,11.48
2022-09-25T22:14:28.632Z,11.42
2022-09-25T22:16:57.475Z,11.36
2022-09-25T22:19:28.476Z,11.42
2022-09-25T22:22:00.134Z,11.34
2022-09-25T22:24:29.316Z,11.34
2022-09-25T22:26:58.055Z,11.33
2022-09-25T22:29:27.738Z,11.33
2022-09-25T22:31:56.400Z,11.38
2022-09-25T22:34:26.583Z,11.38
2022-09-25T22:36:59.463Z,11.39
2022-09-25T22:39:31.000Z,11.37
2022-09-25T22:41:59.822Z,11.47
2022-09-25T22:44:28.643Z,11.46
2022-09-25T22:46:57.503Z,11.48
2022-09-25T22:49:26.496Z,11.55
2022-09-25T22:51:55.215Z,11.55
2022-09-25T22:54:23.818Z,11.57
2022-09-25T22:56:54.170Z,11.62
2022-09-25T22:59:22.768Z,11.74
2022-09-25T23:01:53.868Z,11.80
2022-09-25T23:04:24.938Z,11.81
2022-09-25T23:06:54.200Z,11.85
2022-09-25T23:09:25.082Z,11.59
2022-09-25T23:11:55.563Z,11.52
2022-09-25T23:14:26.608Z,11.64
2022-09-25T23:16:56.302Z,11.68
2022-09-25T23:19:25.996Z,11.71
2022-09-25T23:21:55.415Z,11.71
2022-09-25T23:24:24.558Z,11.71
2022-09-25T23:26:55.193Z,11.63
2022-09-25T23:29:24.422Z,11.69
2022-09-25T23:31:53.244Z,11.71
2022-09-25T23:34:22.336Z,11.70
2022-09-25T23:36:51.104Z,11.69
2022-09-25T23:39:21.180Z,11.69
2022-09-25T23:41:50.288Z,11.73
2022-09-25T23:44:20.364Z,11.69
2022-09-25T23:46:49.073Z,11.70
2022-09-25T23:49:17.858Z,11.76
2022-09-25T23:51:48.282Z,11.78
2022-09-25T23:54:18.522Z,11.73
2022-09-25T23:56:47.372Z,11.77
2022-09-25T23:59:16.339Z,11.77
